PWSweather.com
Personal Weather Stations
Station Observations
MENWDWX1
Menstrie, ScotlandGB

MenstrieScotlandGB

Lat: 56.148322, Lon: -3.85483

Elevation: 62

Station Type: Davis Vantage Pro 2

Latest ConditionsUpdated 3:55:00 AM GMT Wednesday, Aug 21, 2019
Currently Today's Max Today's Min Today's Average
Temperature 52.5°F11.4°C 52.5°F11.4°C 50.8°F10.4°C 51.6°F10.9°C
Dew Point 48.1°F8.9°C 48.2°F9.0°C 46.8°F8.2°C 47.5°F8.6°C
Winds 1.2 mph ENE1.9 kmh ENE 3.5 mph -5.6 kmh - - 2.1 mph 3.4 kmh
Wind Gusts 2.3 mph3.7 kmh 6.9 mph11.1 kmh - -
Humidity 85% 86% 85% 86%
Pressure 30.10 in1019.3 mb 30.12 in1020.0 mb 30.10 in1019.3 mb -
Hour Temp Dew Point Humidity Winds Wind Gusts Pressure Precip Precip Rate Daily Precip Total
03:55 AM 52.5°F11.4°C 48.1°F8.9°C 85% 1.2 mph ENE1.9 kmh ENE 2.3 mph3.7 kmh 30.10 in1019.3 mb - 0.00 in0.0 mm 0.00 in0.0 mm
03:50 AM 52.4°F11.3°C 48.0°F8.9°C 85% 2.3 mph ENE3.7 kmh ENE 3.5 mph5.6 kmh 30.10 in1019.3 mb - 0.00 in0.0 mm 0.00 in0.0 mm
03:45 AM 52.3°F11.3°C 47.9°F8.8°C 85% 1.2 mph ENE1.9 kmh ENE 2.3 mph3.7 kmh 30.10 in1019.3 mb - 0.00 in0.0 mm 0.00 in0.0 mm
03:40 AM 52.3°F11.3°C 47.9°F8.8°C 85% 1.2 mph ENE1.9 kmh ENE 3.5 mph5.6 kmh 30.10 in1019.3 mb - 0.00 in0.0 mm 0.00 in0.0 mm
03:35 AM 52.2°F11.2°C 47.8°F8.8°C 85% 1.2 mph ENE1.9 kmh ENE 2.3 mph3.7 kmh 30.10 in1019.3 mb - 0.00 in0.0 mm 0.00 in0.0 mm
03:30 AM 52.3°F11.3°C 48.2°F9.0°C 86% 2.3 mph ENE3.7 kmh ENE 3.5 mph5.6 kmh 30.10 in1019.3 mb - 0.00 in0.0 mm 0.00 in0.0 mm
03:25 AM 52.3°F11.3°C 48.2°F9.0°C 86% 2.3 mph E3.7 kmh E 4.6 mph7.4 kmh 30.10 in1019.3 mb - 0.00 in0.0 mm 0.00 in0.0 mm
03:20 AM 52.2°F11.2°C 48.1°F8.9°C 86% 3.5 mph E5.6 kmh E 3.5 mph5.6 kmh 30.10 in1019.3 mb - 0.00 in0.0 mm 0.00 in0.0 mm
03:15 AM 52.2°F11.2°C 48.1°F8.9°C 86% Calm Calm -- 30.11 in1019.6 mb - 0.00 in0.0 mm 0.00 in0.0 mm
03:10 AM 52.2°F11.2°C 48.1°F8.9°C 86% 1.2 mph E1.9 kmh E 3.5 mph5.6 kmh 30.11 in1019.6 mb - 0.00 in0.0 mm 0.00 in0.0 mm
03:05 AM 52.2°F11.2°C 48.1°F8.9°C 86% 1.2 mph E1.9 kmh E 3.5 mph5.6 kmh 30.11 in1019.6 mb - 0.00 in0.0 mm 0.00 in0.0 mm
03:00 AM 52.1°F11.2°C 48.1°F8.9°C 86% 1.2 mph E1.9 kmh E 3.5 mph5.6 kmh 30.11 in1019.6 mb - 0.00 in0.0 mm 0.00 in0.0 mm
02:55 AM 52.1°F11.2°C 48.0°F8.9°C 86% 1.2 mph E1.9 kmh E 2.3 mph3.7 kmh 30.11 in1019.6 mb - 0.00 in0.0 mm 0.00 in0.0 mm
02:50 AM 52.2°F11.2°C 48.1°F8.9°C 86% 2.3 mph E3.7 kmh E 3.5 mph5.6 kmh 30.11 in1019.6 mb - 0.00 in0.0 mm 0.00 in0.0 mm
02:45 AM 52.2°F11.2°C 48.1°F8.9°C 86% Calm Calm -- 30.11 in1019.6 mb - 0.00 in0.0 mm 0.00 in0.0 mm
02:40 AM 52.1°F11.2°C 48.0°F8.9°C 86% 3.5 mph E5.6 kmh E 3.5 mph5.6 kmh 30.11 in1019.6 mb - 0.00 in0.0 mm 0.00 in0.0 mm
02:35 AM 51.9°F11.1°C 47.8°F8.8°C 86% 2.3 mph E3.7 kmh E 3.5 mph5.6 kmh 30.11 in1019.6 mb - 0.00 in0.0 mm 0.00 in0.0 mm
02:30 AM 51.8°F11.0°C 47.7°F8.7°C 86% 1.2 mph E1.9 kmh E 3.5 mph5.6 kmh 30.11 in1019.6 mb - 0.00 in0.0 mm 0.00 in0.0 mm
02:25 AM 51.8°F11.0°C 47.7°F8.7°C 86% Calm Calm -- 30.11 in1019.6 mb - 0.00 in0.0 mm 0.00 in0.0 mm
02:20 AM 51.8°F11.0°C 47.7°F8.7°C 86% 2.3 mph E3.7 kmh E 3.5 mph5.6 kmh 30.12 in1020.0 mb - 0.00 in0.0 mm 0.00 in0.0 mm
02:15 AM 51.7°F10.9°C 47.6°F8.7°C 86% 3.5 mph E5.6 kmh E 3.5 mph5.6 kmh 30.11 in1019.6 mb - 0.00 in0.0 mm 0.00 in0.0 mm
02:10 AM 51.5°F10.8°C 47.5°F8.6°C 86% Calm Calm -- 30.12 in1020.0 mb - 0.00 in0.0 mm 0.00 in0.0 mm
02:05 AM 51.5°F10.8°C 47.5°F8.6°C 86% 1.2 mph E1.9 kmh E 2.3 mph3.7 kmh 30.12 in1020.0 mb - 0.00 in0.0 mm 0.00 in0.0 mm
02:00 AM 51.4°F10.8°C 47.4°F8.6°C 86% 2.3 mph E3.7 kmh E 3.5 mph5.6 kmh 30.12 in1020.0 mb - 0.00 in0.0 mm 0.00 in0.0 mm
01:55 AM 51.3°F10.7°C 47.3°F8.5°C 86% 2.3 mph E3.7 kmh E 3.5 mph5.6 kmh 30.12 in1020.0 mb - 0.00 in0.0 mm 0.00 in0.0 mm
01:50 AM 51.2°F10.7°C 47.2°F8.4°C 86% 2.3 mph E3.7 kmh E 3.5 mph5.6 kmh 30.12 in1020.0 mb - 0.00 in0.0 mm 0.00 in0.0 mm
01:45 AM 51.2°F10.7°C 47.2°F8.4°C 86% 3.5 mph E5.6 kmh E 3.5 mph5.6 kmh 30.12 in1020.0 mb - 0.00 in0.0 mm 0.00 in0.0 mm
01:40 AM 51.1°F10.6°C 47.1°F8.4°C 86% 2.3 mph ENE3.7 kmh ENE 3.5 mph5.6 kmh 30.12 in1020.0 mb - 0.00 in0.0 mm 0.00 in0.0 mm
01:35 AM 51.1°F10.6°C 47.1°F8.4°C 86% 2.3 mph ENE3.7 kmh ENE 4.6 mph7.4 kmh 30.12 in1020.0 mb - 0.00 in0.0 mm 0.00 in0.0 mm
01:30 AM 51.1°F10.6°C 47.1°F8.4°C 86% 1.2 mph E1.9 kmh E 3.5 mph5.6 kmh 30.12 in1020.0 mb - 0.00 in0.0 mm 0.00 in0.0 mm
01:25 AM 50.9°F10.5°C 46.9°F8.3°C 86% 3.5 mph ENE5.6 kmh ENE 6.9 mph11.1 kmh 30.12 in1020.0 mb - 0.00 in0.0 mm 0.00 in0.0 mm
01:20 AM 50.8°F10.4°C 46.8°F8.2°C 86% 1.2 mph ENE1.9 kmh ENE 3.5 mph5.6 kmh 30.12 in1020.0 mb - 0.00 in0.0 mm 0.00 in0.0 mm
01:15 AM 50.9°F10.5°C 46.9°F8.3°C 86% 2.3 mph ENE3.7 kmh ENE 3.5 mph5.6 kmh 30.12 in1020.0 mb - 0.00 in0.0 mm 0.00 in0.0 mm
01:10 AM 51.0°F10.6°C 47.0°F8.3°C 86% 2.3 mph ENE3.7 kmh ENE 3.5 mph5.6 kmh 30.12 in1020.0 mb - 0.00 in0.0 mm 0.00 in0.0 mm
01:05 AM 51.2°F10.7°C 47.2°F8.4°C 86% 2.3 mph ENE3.7 kmh ENE 3.5 mph5.6 kmh 30.12 in1020.0 mb - 0.00 in0.0 mm 0.00 in0.0 mm
01:00 AM 51.3°F10.7°C 47.3°F8.5°C 86% 3.5 mph ENE5.6 kmh ENE 3.5 mph5.6 kmh 30.12 in1020.0 mb - 0.00 in0.0 mm 0.00 in0.0 mm
12:55 AM 51.4°F10.8°C 47.4°F8.6°C 86% 3.5 mph ENE5.6 kmh ENE 3.5 mph5.6 kmh 30.12 in1020.0 mb - 0.00 in0.0 mm 0.00 in0.0 mm
12:50 AM 51.4°F10.8°C 47.4°F8.6°C 86% 1.2 mph ENE1.9 kmh ENE 2.3 mph3.7 kmh 30.12 in1020.0 mb - 0.00 in0.0 mm 0.00 in0.0 mm
12:45 AM 51.4°F10.8°C 47.4°F8.6°C 86% 2.3 mph ENE3.7 kmh ENE 3.5 mph5.6 kmh 30.12 in1020.0 mb - 0.00 in0.0 mm 0.00 in0.0 mm
12:40 AM 51.3°F10.7°C 47.3°F8.5°C 86% 1.2 mph ENE1.9 kmh ENE 3.5 mph5.6 kmh 30.12 in1020.0 mb - 0.00 in0.0 mm 0.00 in0.0 mm
12:35 AM 51.2°F10.7°C 47.2°F8.4°C 86% 2.3 mph ENE3.7 kmh ENE 3.5 mph5.6 kmh 30.12 in1020.0 mb - 0.00 in0.0 mm 0.00 in0.0 mm
12:30 AM 51.1°F10.6°C 47.1°F8.4°C 86% 3.5 mph ENE5.6 kmh ENE 3.5 mph5.6 kmh 30.12 in1020.0 mb - 0.00 in0.0 mm 0.00 in0.0 mm
12:25 AM 51.0°F10.6°C 47.0°F8.3°C 86% 3.5 mph ENE5.6 kmh ENE 3.5 mph5.6 kmh 30.12 in1020.0 mb - 0.00 in0.0 mm 0.00 in0.0 mm
12:20 AM 51.1°F10.6°C 47.1°F8.4°C 86% 2.3 mph ENE3.7 kmh ENE 3.5 mph5.6 kmh 30.12 in1020.0 mb - 0.00 in0.0 mm 0.00 in0.0 mm
12:15 AM 51.0°F10.6°C 47.0°F8.3°C 86% 3.5 mph ENE5.6 kmh ENE 3.5 mph5.6 kmh 30.12 in1020.0 mb - 0.00 in0.0 mm 0.00 in0.0 mm
12:10 AM 50.9°F10.5°C 46.9°F8.3°C 86% 3.5 mph ENE5.6 kmh ENE 3.5 mph5.6 kmh 30.12 in1020.0 mb - 0.00 in0.0 mm 0.00 in0.0 mm
12:05 AM 50.9°F10.5°C 46.9°F8.3°C 86% 2.3 mph NE3.7 kmh NE 3.5 mph5.6 kmh 30.12 in1020.0 mb - 0.00 in0.0 mm 0.00 in0.0 mm
12:00 AM 50.8°F10.4°C 46.8°F8.2°C 86% 2.3 mph NE3.7 kmh NE 3.5 mph5.6 kmh 30.12 in1020.0 mb - 0.00 in0.0 mm 0.00 in0.0 mm